Big Bear Station Historical Data
Daily Summary for August 2, 2017 Units:  English    Metric   Both
« Previous Day
Next Day »
Daily Weekly Monthly Yearly Custom
  High: Low: Average:
Temperature: 78.1 °F 59.4 °F 64.6 °F
Dew Point: 61.5 °F 54.5 °F 57.8 °F
Humidity: 95 % 45 % 80 %
Wind Speed: 5.8 mph 0.0 mph 0.9 mph
Wind Gust: -999.0 mph - -
Wind:- - WSW
Pressure: 30.35 in 30.30 in -
Precipitation: 0.34 in    
Historical Graphs
 
 
Tabular Data for August 2, 2017
Time Temperature Dew Point Pressure Wind Wind Speed Wind Gust Humidity Rainfall Rate (Hourly)
00:11 60.4 °F 56.5 °F 30.34 in Calm   -999.0 mph 87 % 0 in
00:26 61.0 °F 56.8 °F 30.33 in Calm   -999.0 mph 86 % 0 in
00:41 61.5 °F 57.3 °F 30.33 in SSE 1.1 mph -999.0 mph 86 % 0 in
00:57 61.3 °F 57.1 °F 30.34 in Calm   -999.0 mph 86 % 0 in
01:12 62.2 °F 57.3 °F 30.34 in South 1.7 mph -999.0 mph 84 % 0 in
01:27 62.1 °F 57.2 °F 30.34 in Calm   -999.0 mph 84 % 0 in
01:42 62.1 °F 57.2 °F 30.33 in Calm   -999.0 mph 84 % 0 in
01:57 61.7 °F 56.8 °F 30.32 in Calm   -999.0 mph 84 % 0 in
02:13 61.5 °F 56.9 °F 30.32 in Calm   -999.0 mph 85 % 0 in
02:28 61.3 °F 56.8 °F 30.32 in Calm   -999.0 mph 85 % 0 in
02:43 61.3 °F 56.8 °F 30.32 in South 2.2 mph -999.0 mph 85 % 0 in
02:58 61.0 °F 56.5 °F 30.32 in Calm   -999.0 mph 85 % 0 in
03:13 60.8 °F 56.3 °F 30.32 in South 1.7 mph -999.0 mph 85 % 0 in
03:29 60.4 °F 55.9 °F 30.32 in South 2.2 mph -999.0 mph 85 % 0 in
03:44 60.3 °F 55.8 °F 30.32 in South 1.7 mph -999.0 mph 85 % 0 in
03:59 59.9 °F 55.4 °F 30.31 in SSW 2.7 mph -999.0 mph 85 % 0 in
04:14 59.9 °F 55.7 °F 30.30 in Calm   -999.0 mph 86 % 0 in
04:29 59.9 °F 56.0 °F 30.30 in Calm   -999.0 mph 87 % 0 in
04:45 59.9 °F 55.7 °F 30.31 in Calm   -999.0 mph 86 % 0 in
05:00 59.9 °F 55.1 °F 30.31 in NW 2.2 mph -999.0 mph 84 % 0 in
05:15 59.9 °F 55.4 °F 30.31 in Calm   -999.0 mph 85 % 0 in
05:30 59.9 °F 55.1 °F 30.32 in Calm   -999.0 mph 84 % 0 in
05:45 59.7 °F 54.5 °F 30.32 in SSW 1.7 mph -999.0 mph 83 % 0 in
06:01 59.5 °F 54.7 °F 30.33 in Calm   -999.0 mph 84 % 0 in
06:16 59.4 °F 55.2 °F 30.33 in Calm   -999.0 mph 86 % 0 in
06:31 59.5 °F 55.0 °F 30.33 in Calm   -999.0 mph 85 % 0 in
06:46 59.9 °F 55.4 °F 30.32 in Calm   -999.0 mph 85 % 0 in
07:02 60.8 °F 56.3 °F 30.33 in Calm   -999.0 mph 85 % 0 in
07:17 61.3 °F 56.4 °F 30.33 in Calm   -999.0 mph 84 % 0 in
07:32 61.9 °F 56.7 °F 30.34 in Calm   -999.0 mph 83 % 0 in
07:47 62.8 °F 57.6 °F 30.34 in Calm   -999.0 mph 83 % 0 in
08:02 63.1 °F 57.9 °F 30.34 in Calm   -999.0 mph 83 % 0 in
08:18 62.6 °F 58.0 °F 30.34 in Calm   -999.0 mph 85 % 0 in
08:33 62.1 °F 58.8 °F 30.35 in Calm   -999.0 mph 89 % 0 in
08:48 63.3 °F 59.0 °F 30.35 in Calm   -999.0 mph 86 % 0 in
09:03 64.8 °F 59.2 °F 30.35 in Calm   -999.0 mph 82 % 0 in
09:18 66.2 °F 58.0 °F 30.35 in Calm   -999.0 mph 75 % 0 in
09:34 67.3 °F 60.2 °F 30.35 in NNW 1.1 mph -999.0 mph 78 % 0 in
09:49 68.9 °F 61.0 °F 30.35 in WNW 2.2 mph -999.0 mph 76 % 0 in
10:04 69.1 °F 58.5 °F 30.35 in NW 2.7 mph -999.0 mph 69 % 0 in
10:19 70.5 °F 58.2 °F 30.35 in NNW 2.2 mph -999.0 mph 65 % 0 in
10:34 71.2 °F 57.1 °F 30.35 in WNW 1.7 mph -999.0 mph 61 % 0 in
10:50 72.1 °F 58.4 °F 30.35 in Calm   -999.0 mph 62 % 0 in
11:05 73.4 °F 58.7 °F 30.35 in NW 2.2 mph -999.0 mph 60 % 0 in
11:20 72.1 °F 57.5 °F 30.35 in Calm   -999.0 mph 60 % 0 in
11:35 72.5 °F 58.3 °F 30.35 in Calm   -999.0 mph 61 % 0 in
11:51 70.9 °F 57.7 °F 30.35 in WNW 1.1 mph -999.0 mph 63 % 0 in
12:06 70.2 °F 57.5 °F 30.35 in Calm   -999.0 mph 64 % 0 in
12:21 74.1 °F 59.3 °F 30.34 in NNW 1.7 mph -999.0 mph 60 % 0 in
12:36 75.4 °F 58.1 °F 30.34 in ENE 4.2 mph -999.0 mph 55 % 0 in
12:51 77.7 °F 55.9 °F 30.34 in WSW 1.7 mph -999.0 mph 47 % 0 in
13:07 78.1 °F 55.0 °F 30.34 in NW 2.7 mph -999.0 mph 45 % 0 in
13:22 77.2 °F 56.0 °F 30.33 in NW 3.2 mph -999.0 mph 48 % 0 in
13:37 76.3 °F 56.3 °F 30.32 in North 4.2 mph -999.0 mph 50 % 0 in
13:52 75.6 °F 55.1 °F 30.33 in NNW 2.2 mph -999.0 mph 49 % 0 in
14:07 75.2 °F 58.4 °F 30.32 in NW 3.7 mph -999.0 mph 56 % 0 in
14:23 75.0 °F 58.7 °F 30.32 in Calm   -999.0 mph 57 % 0 in
14:38 77.0 °F 60.1 °F 30.32 in WNW 1.1 mph -999.0 mph 56 % 0 in
14:53 76.1 °F 59.8 °F 30.32 in Calm   -999.0 mph 57 % 0 in
15:08 75.9 °F 61.5 °F 30.31 in West 1.1 mph -999.0 mph 61 % 0 in
15:23 75.6 °F 59.3 °F 30.31 in NNW 2.2 mph -999.0 mph 57 % 0 in
15:39 73.6 °F 61.5 °F 30.31 in SSE 1.7 mph -999.0 mph 66 % 0 in
15:54 69.3 °F 59.9 °F 30.31 in South 2.2 mph -999.0 mph 72 % 0 in
16:09 67.6 °F 60.9 °F 30.31 in SSW 2.2 mph -999.0 mph 79 % 0 in
16:24 64.8 °F 59.9 °F 30.31 in SSE 2.7 mph -999.0 mph 84 % 0 in
16:39 60.6 °F 56.1 °F 30.31 in SSW 5.8 mph -999.0 mph 85 % 0 in
16:55 60.8 °F 57.8 °F 30.31 in Calm   -999.0 mph 90 % 0 in
17:10 60.6 °F 58.0 °F 30.32 in Calm   -999.0 mph 91 % 0 in
17:25 60.3 °F 57.4 °F 30.31 in NW 1.7 mph -999.0 mph 90 % 0 in
17:40 59.5 °F 57.2 °F 30.30 in SSE 2.2 mph -999.0 mph 92 % 0 in
17:56 59.9 °F 57.6 °F 30.30 in Calm   -999.0 mph 92 % 0 in
18:11 60.8 °F 58.2 °F 30.30 in Calm   -999.0 mph 91 % 0 in
18:26 61.5 °F 58.8 °F 30.30 in Calm   -999.0 mph 91 % 0 in
18:41 62.1 °F 59.4 °F 30.30 in Calm   -999.0 mph 91 % 0 in
18:56 61.9 °F 59.2 °F 30.31 in Calm   -999.0 mph 91 % 0 in
19:12 61.7 °F 58.1 °F 30.31 in South 2.2 mph -999.0 mph 88 % 0 in
19:27 61.7 °F 58.4 °F 30.31 in Calm   -999.0 mph 89 % 0 in
19:42 61.5 °F 58.5 °F 30.32 in Calm   -999.0 mph 90 % 0 in
19:57 61.5 °F 59.5 °F 30.32 in Calm   -999.0 mph 93 % 0 in
20:13 61.3 °F 59.0 °F 30.32 in Calm   -999.0 mph 92 % 0 in
20:28 61.3 °F 59.3 °F 30.32 in SSW 2.2 mph -999.0 mph 93 % 0 in
20:43 61.0 °F 59.3 °F 30.33 in South 1.7 mph -999.0 mph 94 % 0 in
20:58 61.0 °F 59.3 °F 30.33 in South 2.2 mph -999.0 mph 94 % 0 in
21:13 60.6 °F 58.9 °F 30.34 in Calm   -999.0 mph 94 % 0 in
21:28 60.6 °F 58.9 °F 30.34 in SSE 1.7 mph -999.0 mph 94 % 0 in
21:44 60.6 °F 58.9 °F 30.35 in Calm   -999.0 mph 94 % 0 in
21:59 60.6 °F 58.9 °F 30.35 in Calm   -999.0 mph 94 % 0 in
22:14 60.6 °F 59.2 °F 30.35 in Calm   -999.0 mph 95 % 0 in
22:29 60.4 °F 59.0 °F 30.35 in South 1.1 mph -999.0 mph 95 % 0 in
22:44 60.4 °F 59.0 °F 30.35 in Calm   -999.0 mph 95 % 0 in
23:00 60.3 °F 58.9 °F 30.35 in Calm   -999.0 mph 95 % 0 in
23:15 60.4 °F 59.0 °F 30.35 in Calm   -999.0 mph 95 % 0 in
23:30 60.3 °F 58.9 °F 30.35 in Calm   -999.0 mph 95 % 0 in
23:45 60.1 °F 58.7 °F 30.35 in Calm   -999.0 mph 95 % 0 in
Big Bear CA Weather
Compliments of Weather Underground - 1.5 mb